Calumet, IA

01:28 PM CDT del 31 Ottobre 2014 (GMT -0500)
Orange City Municipal | Change Station
CLOSE
Current Station
Aeroporto
Location: Orange City,
Altitudine: 1414 ft
Stazioni meteo nelle vicinanze

Alt. 1414 ft 42.99 °N, 96.06 °W | Updated 14 minutes ago

Sereno
Sereno
37 °F
Sembra 34 °F
N
5
Vento Variabile Vento da NNE

Oggi
Massima -- | Minima -- °F
--% Possibilità di precip.
Ieri
Massima -- | Minima -- °F
Precip. -- in
7:55 AM 6:15 PM
Primo quarto, 57% visible
Pressione 30.54 in
Visibilità 10.0 miglia
Nuvole Sereno
Raffreddamento del vento 34 °F
Punto di rugiada 18 °F
Umidità 45%
Piovosità 0.00 in
Spessore del manto nevoso Non disponibile.
Raggi UV 4 fuori da 12
Polline .10 fuori da 12
Qualità dell'aria Non disponibile.
Flu Activity Non disponibile.
METAR KORC 311815Z AUTO 02004KT 10SM CLR 03/M08 A3054 RMK AO2

More Conditions Fewer Conditions

Pressione 30.54 in
Visibilità 10.0 miglia
Nuvole Sereno
Raffreddamento del vento 34 °F
Punto di rugiada 18 °F
Umidità 45%
Piovosità 0.00 in
Spessore del manto nevoso Non disponibile.
Raggi UV 4 fuori da 12
Polline .10 fuori da 12
Qualità dell'aria Non disponibile.
Flu Activity Non disponibile.
METAR KORC 311815Z AUTO 02004KT 10SM CLR 03/M08 A3054 RMK AO2

More Conditions Fewer Conditions

10-Day Weather Forecast

Almanac

Astronomia

Oct. 31, 2014 Alba Tramonto
Ora attuale
Crepuscolo civile
Crepuscolo nautico
Crepuscolo astronomico
Luna
Estensione della luce visibile
Lunghezza del giorno
Tomorrow will be .
, % of the Moon is Illuminated

Gli estremi di oggi

State Highs State Lows

Community

WunderPhotos

Upload Photos

1,766,686 foto caricate!

WunderBlogs® & News

Nearby

Qualità dell'aria

  Qualità dell'aria Indice AQ Inquinante
Not available.

Profondità neve

Stazione Profondità Altitudine

Attività sismica

Città  Distanza Mag. Data & Ora
Minimo Magnitudo Mostrato è 2.5.

Temperature delle acque costiere

Località Temperatura

Stazioni meteo nelle vicinanze